Time;durP1;ratioP1;P1;durP2;ratioP2;P2;SDS_P1;SDS_P2;PMS_P1;PMS_P2;Temp;Humidity;BMP_temperature;BMP_pressure;BME280_temperature;BME280_humidity;BME280_pressure;Samples;Min_cycle;Max_cycle;Signal;HPM_P1;HPM_P2
2022/01/19 00:00:01;;;;;;;;;26.00;23.67;;;;;;;;4992284;28;45563;-79
2022/01/19 00:02:26;;;;;;;;;23.33;22.33;;;;;;;;5000141;28;46134;-79
2022/01/19 00:04:51;;;;;;;;;22.67;21.67;;;;;;;;5006209;28;45356;-79
2022/01/19 00:07:16;;;;;;;;;26.67;25.33;;;;;;;;4994112;28;45814;-79
2022/01/19 00:09:42;;;;;;;;;24.33;22.67;;;;;;;;4992387;28;45712;-79
2022/01/19 00:12:07;;;;;;;;;23.67;21.67;;;;;;;;5004033;28;46206;-79
2022/01/19 00:14:32;;;;;;;;;34.00;32.00;;;;;;;;5003863;28;45417;-79
2022/01/19 00:16:57;;;;;;;;;24.00;23.00;;;;;;;;4997610;28;45668;-79
2022/01/19 00:19:23;;;;;;;;;24.67;22.00;;;;;;;;4998985;28;45497;-79
2022/01/19 00:21:48;;;;;;;;;24.00;23.00;;;;;;;;5000864;28;45575;-79
2022/01/19 00:24:13;;;;;;;;;23.33;22.00;;;;;;;;5010736;28;45053;-79
2022/01/19 00:26:38;;;;;;;;;23.33;21.00;;;;;;;;5006880;28;45200;-79
2022/01/19 00:29:04;;;;;;;;;26.00;24.00;;;;;;;;5010677;28;45313;-80
2022/01/19 00:31:29;;;;;;;;;27.67;26.67;;;;;;;;5011285;28;45250;-79
2022/01/19 00:33:54;;;;;;;;;23.67;21.67;;;;;;;;5010709;28;45164;-79
2022/01/19 00:36:19;;;;;;;;;25.00;24.33;;;;;;;;5010799;28;45260;-79
2022/01/19 00:38:44;;;;;;;;;28.67;24.00;;;;;;;;5010561;28;45179;-79
2022/01/19 00:41:10;;;;;;;;;24.67;23.67;;;;;;;;5010546;28;45369;-80
2022/01/19 00:43:37;;;;;;;;;22.75;19.75;;;;;;;;5011022;28;45196;-79
2022/01/19 00:46:03;;;;;;;;;24.25;22.25;;;;;;;;5010586;28;45552;-79
2022/01/19 00:48:28;;;;;;;;;21.75;19.75;;;;;;;;5010726;28;45069;-79
2022/01/19 00:50:54;;;;;;;;;23.33;22.67;;;;;;;;5010444;28;45231;-79
2022/01/19 00:53:19;;;;;;;;;24.50;23.25;;;;;;;;5010499;28;45081;-79
2022/01/19 00:55:45;;;;;;;;;22.00;20.75;;;;;;;;5010241;28;45211;-79
2022/01/19 00:58:10;;;;;;;;;27.00;24.50;;;;;;;;4991967;28;45545;-79
2022/01/19 01:00:35;;;;;;;;;19.33;18.33;;;;;;;;5010510;28;45858;-79
2022/01/19 01:03:02;;;;;;;;;21.33;18.33;;;;;;;;5010372;28;45229;-79
2022/01/19 01:05:27;;;;;;;;;20.00;20.00;;;;;;;;5008492;28;45198;-79
2022/01/19 01:07:52;;;;;;;;;24.33;21.67;;;;;;;;5010724;28;46451;-79
2022/01/19 01:10:20;;;;;;;;;18.67;18.00;;;;;;;;5007682;28;46140;-79
2022/01/19 01:12:51;;;;;;;;;24.50;21.25;;;;;;;;5010365;28;45225;-79
2022/01/19 01:20:39;;;;;;;;;25.25;22.25;;;;;;;;4992056;28;45467;-79
2022/01/19 01:23:05;;;;;;;;;22.75;21.25;;;;;;;;4992692;28;45763;-79
2022/01/19 01:25:31;;;;;;;;;23.75;22.75;;;;;;;;4993790;28;47007;-80
2022/01/19 01:27:56;;;;;;;;;23.75;23.00;;;;;;;;4992567;28;45444;-79
2022/01/19 01:30:21;;;;;;;;;23.00;22.33;;;;;;;;4991468;28;45671;-79
2022/01/19 01:32:47;;;;;;;;;25.67;25.33;;;;;;;;4979069;28;45713;-79
2022/01/19 01:35:12;;;;;;;;;27.67;23.00;;;;;;;;4993313;28;45822;-79
2022/01/19 01:37:37;;;;;;;;;27.00;25.00;;;;;;;;4991281;28;45523;-79
2022/01/19 01:40:08;;;;;;;;;26.00;24.00;;;;;;;;4993069;28;45538;-79
2022/01/19 01:42:34;;;;;;;;;24.75;23.50;;;;;;;;4991246;28;45684;-79
2022/01/19 01:45:01;;;;;;;;;22.25;21.00;;;;;;;;4991361;28;45577;-79
2022/01/19 01:47:27;;;;;;;;;21.75;18.50;;;;;;;;4996356;28;45635;-79
2022/01/19 01:55:04;;;;;;;;;22.00;21.00;;;;;;;;4995810;28;45604;-79
2022/01/19 01:57:29;;;;;;;;;22.75;21.00;;;;;;;;5003539;28;45424;-79
2022/01/19 01:59:54;;;;;;;;;27.33;25.00;;;;;;;;4997331;28;45506;-79
2022/01/19 02:02:20;;;;;;;;;27.67;25.33;;;;;;;;4999815;28;45705;-79
2022/01/19 02:04:45;;;;;;;;;23.33;22.00;;;;;;;;5006153;28;45414;-79
2022/01/19 02:09:46;;;;;;;;;22.25;21.75;;;;;;;;4995638;28;45816;-78
2022/01/19 02:23:08;;;;;;;;;23.25;23.25;;;;;;;;4991469;28;45922;-79
2022/01/19 02:25:39;;;;;;;;;22.25;22.00;;;;;;;;4990971;28;45589;-79
2022/01/19 02:41:37;;;;;;;;;24.50;23.75;;;;;;;;4971408;28;45529;-79
2022/01/19 02:44:02;;;;;;;;;26.50;24.75;;;;;;;;4982830;28;45482;-80
2022/01/19 02:49:16;;;;;;;;;23.50;21.50;;;;;;;;4990646;28;45619;-80
2022/01/19 02:51:45;;;;;;;;;25.25;23.75;;;;;;;;4989966;28;45772;-79
2022/01/19 02:54:14;;;;;;;;;23.25;23.00;;;;;;;;5008978;28;45522;-79
2022/01/19 02:56:41;;;;;;;;;27.25;23.75;;;;;;;;5007878;28;45109;-79
2022/01/19 02:59:18;;;;;;;;;23.50;22.25;;;;;;;;4988617;28;45262;-79
2022/01/19 03:09:45;;;;;;;;;25.75;25.25;;;;;;;;5004435;28;45475;-79
2022/01/19 03:12:11;;;;;;;;;30.25;25.50;;;;;;;;5008427;28;47773;-79
2022/01/19 03:14:37;;;;;;;;;25.75;23.50;;;;;;;;5006376;28;45387;-78
2022/01/19 03:17:03;;;;;;;;;27.00;27.00;;;;;;;;5005377;28;45256;-79
2022/01/19 03:19:30;;;;;;;;;26.25;23.00;;;;;;;;5003429;28;45223;-79
2022/01/19 03:21:55;;;;;;;;;23.50;22.50;;;;;;;;5008330;28;45915;-79
2022/01/19 03:24:20;;;;;;;;;27.00;24.00;;;;;;;;5003554;28;45093;-79
2022/01/19 03:26:46;;;;;;;;;23.00;23.00;;;;;;;;5001225;28;45069;-79
2022/01/19 03:29:11;;;;;;;;;29.67;28.33;;;;;;;;4971895;28;45609;-78
2022/01/19 03:31:36;;;;;;;;;28.67;27.33;;;;;;;;4989299;28;46449;-79
2022/01/19 03:34:02;;;;;;;;;29.25;25.75;;;;;;;;4991840;28;45703;-79
2022/01/19 03:36:27;;;;;;;;;26.50;24.00;;;;;;;;5004828;28;45485;-79
2022/01/19 03:38:53;;;;;;;;;24.75;23.00;;;;;;;;5006687;28;45045;-79
2022/01/19 03:41:18;;;;;;;;;23.33;23.33;;;;;;;;4990211;28;45522;-79
2022/01/19 03:43:43;;;;;;;;;28.33;26.00;;;;;;;;4991425;28;45396;-80
2022/01/19 03:46:14;;;;;;;;;29.67;27.33;;;;;;;;4971479;28;45417;-79
2022/01/19 03:49:21;;;;;;;;;27.50;24.00;;;;;;;;4993396;28;45838;-79
2022/01/19 03:51:31;;;;;;;;;24.50;23.75;;;;;;;;4970377;28;45557;-79
2022/01/19 03:53:56;;;;;;;;;27.00;26.33;;;;;;;;4984255;28;45366;-78
2022/01/19 03:56:21;;;;;;;;;26.00;24.33;;;;;;;;4993331;28;45498;-79
2022/01/19 03:58:46;;;;;;;;;29.00;27.67;;;;;;;;4976722;28;45414;-79
2022/01/19 04:01:11;;;;;;;;;31.00;25.00;;;;;;;;4992908;28;46446;-79
2022/01/19 04:09:02;;;;;;;;;27.75;26.50;;;;;;;;4930703;28;45907;-79
2022/01/19 04:11:28;;;;;;;;;28.33;26.67;;;;;;;;4979498;28;46422;-79
2022/01/19 04:14:21;;;;;;;;;27.33;25.67;;;;;;;;4992473;28;45459;-79
2022/01/19 04:16:44;;;;;;;;;23.75;23.25;;;;;;;;4992331;28;45495;-79
2022/01/19 04:21:44;;;;;;;;;29.25;27.50;;;;;;;;4992928;28;45836;-79
2022/01/19 04:24:10;;;;;;;;;35.00;31.00;;;;;;;;4991226;28;45576;-79
2022/01/19 04:26:35;;;;;;;;;24.33;24.33;;;;;;;;4992747;28;45357;-78
2022/01/19 04:29:00;;;;;;;;;27.00;25.67;;;;;;;;4995162;28;45559;-79
2022/01/19 04:31:25;;;;;;;;;27.00;27.00;;;;;;;;4992259;28;46295;-78
2022/01/19 04:33:51;;;;;;;;;31.00;27.67;;;;;;;;4992779;28;45540;-79
2022/01/19 04:45:00;;;;;;;;;26.75;25.50;;;;;;;;4989772;28;45886;-79
2022/01/19 05:06:03;;;;;;;;;30.00;28.00;;;;;;;;4992161;28;45313;-79
2022/01/19 05:13:38;;;;;;;;;32.50;28.50;;;;;;;;5006286;28;45374;-79
2022/01/19 05:16:03;;;;;;;;;29.75;28.75;;;;;;;;5002130;28;45455;-79
2022/01/19 05:18:29;;;;;;;;;27.75;25.75;;;;;;;;4992031;28;45237;-79
2022/01/19 05:20:54;;;;;;;;;28.00;24.00;;;;;;;;5010379;28;45108;-78
2022/01/19 05:23:19;;;;;;;;;32.75;29.75;;;;;;;;5008292;28;45946;-79
2022/01/19 05:25:45;;;;;;;;;31.00;27.00;;;;;;;;5007361;28;45288;-79
2022/01/19 05:28:11;;;;;;;;;33.75;28.75;;;;;;;;4984494;28;45172;-79
2022/01/19 05:30:36;;;;;;;;;27.25;24.75;;;;;;;;4988628;28;45393;-79
2022/01/19 05:33:01;;;;;;;;;35.67;31.33;;;;;;;;5005768;28;45572;-78
2022/01/19 05:35:27;;;;;;;;;37.00;32.00;;;;;;;;4991020;28;45261;-78
2022/01/19 05:37:53;;;;;;;;;34.00;33.00;;;;;;;;5002439;28;45416;-79
2022/01/19 05:40:18;;;;;;;;;35.50;33.50;;;;;;;;5007422;28;45402;-79
2022/01/19 05:42:46;;;;;;;;;33.00;28.33;;;;;;;;5010284;28;45833;-79
2022/01/19 05:45:11;;;;;;;;;35.00;33.75;;;;;;;;5009503;28;45369;-79
2022/01/19 05:47:36;;;;;;;;;34.00;32.33;;;;;;;;5008690;28;44983;-79
2022/01/19 05:50:02;;;;;;;;;35.33;33.33;;;;;;;;5009621;28;45144;-79
2022/01/19 05:52:27;;;;;;;;;33.00;29.25;;;;;;;;5009201;28;45670;-79
2022/01/19 05:54:52;;;;;;;;;32.33;29.00;;;;;;;;5008404;28;45385;-79
2022/01/19 05:57:17;;;;;;;;;40.67;36.67;;;;;;;;5008650;28;44978;-77
2022/01/19 05:59:43;;;;;;;;;43.33;37.33;;;;;;;;4986595;28;45338;-79
2022/01/19 06:02:08;;;;;;;;;37.25;34.25;;;;;;;;5000735;28;46225;-79
2022/01/19 06:04:33;;;;;;;;;39.33;37.00;;;;;;;;5006982;28;45361;-79
2022/01/19 06:07:01;;;;;;;;;36.33;33.00;;;;;;;;5008894;28;45169;-79
2022/01/19 06:11:57;;;;;;;;;38.75;32.50;;;;;;;;5002845;28;46639;-79
2022/01/19 06:14:23;;;;;;;;;32.00;30.67;;;;;;;;5007632;28;45109;-79
2022/01/19 06:16:48;;;;;;;;;31.00;30.00;;;;;;;;5000984;28;45352;-79
2022/01/19 06:19:14;;;;;;;;;29.00;28.67;;;;;;;;4979150;28;45437;-79
2022/01/19 06:21:39;;;;;;;;;40.50;37.00;;;;;;;;4992100;28;46600;-79
2022/01/19 06:24:05;;;;;;;;;35.25;29.00;;;;;;;;4993063;28;45432;-79
2022/01/19 06:26:30;;;;;;;;;33.00;31.00;;;;;;;;4993095;28;45438;-79
2022/01/19 06:28:55;;;;;;;;;28.33;25.33;;;;;;;;4996750;28;45579;-79
2022/01/19 06:31:20;;;;;;;;;39.00;31.33;;;;;;;;4989771;28;47005;-79
2022/01/19 06:33:45;;;;;;;;;38.33;33.33;;;;;;;;5004899;28;45078;-79
2022/01/19 06:36:11;;;;;;;;;39.67;36.00;;;;;;;;5008590;28;45136;-79
2022/01/19 06:38:36;;;;;;;;;36.33;33.33;;;;;;;;5008516;28;45198;-79
2022/01/19 06:41:01;;;;;;;;;40.33;37.00;;;;;;;;5009112;28;45923;-79
2022/01/19 06:43:26;;;;;;;;;34.00;33.33;;;;;;;;5008345;28;44859;-79
2022/01/19 06:45:53;;;;;;;;;44.00;37.00;;;;;;;;5008572;28;45103;-79
2022/01/19 06:48:18;;;;;;;;;35.00;31.75;;;;;;;;5008215;28;45005;-79
2022/01/19 06:50:43;;;;;;;;;32.00;32.00;;;;;;;;5009285;28;45449;-79
2022/01/19 06:53:08;;;;;;;;;41.33;37.33;;;;;;;;4995083;28;45851;-79
2022/01/19 06:55:33;;;;;;;;;39.67;33.00;;;;;;;;4999777;28;45505;-80
2022/01/19 06:57:59;;;;;;;;;39.00;35.67;;;;;;;;4972571;28;45585;-79
2022/01/19 07:00:24;;;;;;;;;44.00;39.00;;;;;;;;4990102;28;46217;-80
2022/01/19 07:02:49;;;;;;;;;45.00;38.67;;;;;;;;4994601;28;45507;-79
2022/01/19 07:05:14;;;;;;;;;43.00;38.00;;;;;;;;4989752;28;45631;-80
2022/01/19 07:07:40;;;;;;;;;47.67;40.33;;;;;;;;4990152;28;45926;-80
2022/01/19 07:10:07;;;;;;;;;37.50;33.00;;;;;;;;4992163;28;46283;-80
2022/01/19 07:12:33;;;;;;;;;49.75;41.00;;;;;;;;4991660;28;45732;-80
2022/01/19 07:14:58;;;;;;;;;41.75;37.25;;;;;;;;4975071;28;45406;-80
2022/01/19 07:17:23;;;;;;;;;46.33;40.33;;;;;;;;4992568;28;45515;-80
2022/01/19 07:19:48;;;;;;;;;41.67;38.67;;;;;;;;4992417;28;45528;-80
2022/01/19 07:22:15;;;;;;;;;42.00;38.00;;;;;;;;4990453;28;45534;-81
2022/01/19 07:24:41;;;;;;;;;42.25;37.75;;;;;;;;4990609;28;45495;-79
2022/01/19 07:27:06;;;;;;;;;45.50;39.00;;;;;;;;4972394;28;45874;-79
2022/01/19 07:29:31;;;;;;;;;42.00;38.67;;;;;;;;4989691;28;45519;-79
2022/01/19 07:31:58;;;;;;;;;44.33;38.67;;;;;;;;4980801;28;45711;-80
2022/01/19 07:34:23;;;;;;;;;40.75;36.00;;;;;;;;4981582;28;45498;-79
2022/01/19 07:36:48;;;;;;;;;46.67;40.67;;;;;;;;4991068;28;45762;-79
2022/01/19 07:39:14;;;;;;;;;37.25;34.75;;;;;;;;5007665;28;46794;-80
2022/01/19 07:41:40;;;;;;;;;44.33;39.00;;;;;;;;4975282;28;46179;-79
2022/01/19 07:44:06;;;;;;;;;45.67;39.00;;;;;;;;4999014;28;45558;-80
2022/01/19 07:46:31;;;;;;;;;42.75;38.00;;;;;;;;4990527;28;45059;-81
2022/01/19 07:48:56;;;;;;;;;39.00;37.00;;;;;;;;4989833;28;46667;-79
2022/01/19 07:51:21;;;;;;;;;48.00;37.67;;;;;;;;5007101;28;45185;-81
2022/01/19 07:53:46;;;;;;;;;48.67;40.67;;;;;;;;5007967;28;45404;-81
2022/01/19 07:56:12;;;;;;;;;43.00;38.33;;;;;;;;4990384;28;45092;-82
2022/01/19 07:58:37;;;;;;;;;49.67;41.00;;;;;;;;5007436;28;45548;-81
2022/01/19 08:01:02;;;;;;;;;47.75;39.50;;;;;;;;4973482;28;45437;-86
2022/01/19 08:03:28;;;;;;;;;45.00;40.67;;;;;;;;4984458;28;45121;-83
2022/01/19 08:05:53;;;;;;;;;46.67;41.67;;;;;;;;5004956;28;45475;-82
2022/01/19 08:08:18;;;;;;;;;54.67;42.00;;;;;;;;4989039;28;47698;-82
2022/01/19 08:10:45;;;;;;;;;51.50;41.00;;;;;;;;4986447;28;45181;-88
2022/01/19 08:13:10;;;;;;;;;47.50;40.00;;;;;;;;4984394;28;45154;-81
2022/01/19 08:15:36;;;;;;;;;50.25;43.25;;;;;;;;4985084;28;45288;-81
2022/01/19 08:18:01;;;;;;;;;47.25;41.00;;;;;;;;4987872;28;46096;-80
2022/01/19 08:20:26;;;;;;;;;47.25;37.00;;;;;;;;4994150;28;45650;-82
2022/01/19 08:22:51;;;;;;;;;48.67;40.00;;;;;;;;4983398;28;45194;-81
2022/01/19 08:25:17;;;;;;;;;49.00;41.33;;;;;;;;5004494;28;45423;-81
2022/01/19 08:27:42;;;;;;;;;54.25;42.25;;;;;;;;4972688;28;46813;-80
2022/01/19 08:30:08;;;;;;;;;45.00;39.33;;;;;;;;4997151;28;45140;-80
2022/01/19 08:32:36;;;;;;;;;51.25;41.75;;;;;;;;5001195;28;45791;-79
2022/01/19 08:35:03;;;;;;;;;49.25;40.50;;;;;;;;4995038;28;45502;-82
2022/01/19 08:37:28;;;;;;;;;47.00;41.75;;;;;;;;5001650;28;46508;-79
2022/01/19 08:39:53;;;;;;;;;47.00;37.00;;;;;;;;5005958;28;45336;-80
2022/01/19 08:42:18;;;;;;;;;49.00;40.00;;;;;;;;5008093;28;45629;-82
2022/01/19 08:44:44;;;;;;;;;46.67;40.33;;;;;;;;4974880;28;45577;-80
2022/01/19 08:47:09;;;;;;;;;39.33;37.00;;;;;;;;4974152;28;47051;-81
2022/01/19 08:49:34;;;;;;;;;52.00;40.00;;;;;;;;4991575;28;45349;-79
2022/01/19 08:52:01;;;;;;;;;44.75;38.75;;;;;;;;4990787;28;45493;-79
2022/01/19 08:54:26;;;;;;;;;49.50;42.50;;;;;;;;4988444;28;45523;-80
2022/01/19 08:56:51;;;;;;;;;44.00;39.33;;;;;;;;4978533;28;47185;-80
2022/01/19 08:59:16;;;;;;;;;49.67;40.67;;;;;;;;4991705;28;45122;-80
2022/01/19 09:01:42;;;;;;;;;47.00;40.00;;;;;;;;5010763;28;45240;-79
2022/01/19 09:04:07;;;;;;;;;49.00;42.33;;;;;;;;4978332;28;45266;-79
2022/01/19 09:06:32;;;;;;;;;45.67;40.00;;;;;;;;4998897;28;45449;-79
2022/01/19 09:08:57;;;;;;;;;55.67;43.00;;;;;;;;5009656;28;45483;-79
2022/01/19 09:11:22;;;;;;;;;52.67;43.00;;;;;;;;4993601;28;45559;-79
2022/01/19 09:13:49;;;;;;;;;44.67;39.00;;;;;;;;4987051;28;45452;-79
2022/01/19 09:16:14;;;;;;;;;40.75;37.75;;;;;;;;4994993;28;46566;-79
2022/01/19 09:18:39;;;;;;;;;44.50;39.25;;;;;;;;4991517;28;45493;-79
2022/01/19 09:21:05;;;;;;;;;47.67;39.33;;;;;;;;4975430;28;45408;-79
2022/01/19 09:23:30;;;;;;;;;49.33;39.67;;;;;;;;4991189;28;45421;-79
2022/01/19 09:25:56;;;;;;;;;49.25;39.00;;;;;;;;4990372;28;45522;-79
2022/01/19 09:28:21;;;;;;;;;44.25;38.00;;;;;;;;4991586;28;45663;-79
2022/01/19 09:30:48;;;;;;;;;42.67;38.00;;;;;;;;4991537;28;45427;-80
2022/01/19 09:33:20;;;;;;;;;42.25;39.25;;;;;;;;4969804;28;45833;-79
2022/01/19 09:36:05;;;;;;;;;47.00;40.75;;;;;;;;4972632;28;46427;-78
2022/01/19 09:38:32;;;;;;;;;45.00;37.75;;;;;;;;4972626;28;45813;-80
2022/01/19 09:40:57;;;;;;;;;44.75;37.00;;;;;;;;4972284;28;45618;-79
2022/01/19 09:43:23;;;;;;;;;44.50;39.50;;;;;;;;4971378;28;45606;-79
2022/01/19 09:45:52;;;;;;;;;46.75;38.25;;;;;;;;4971455;28;45473;-81
2022/01/19 09:48:18;;;;;;;;;44.00;38.00;;;;;;;;4970034;28;45504;-79
2022/01/19 09:50:44;;;;;;;;;43.00;39.00;;;;;;;;4971345;28;45463;-80
2022/01/19 09:53:09;;;;;;;;;50.50;42.50;;;;;;;;4969563;28;45802;-80
2022/01/19 09:55:36;;;;;;;;;53.67;40.67;;;;;;;;4971143;28;45624;-79
2022/01/19 09:58:01;;;;;;;;;42.00;38.50;;;;;;;;4969114;28;45364;-79
2022/01/19 10:00:27;;;;;;;;;42.50;36.50;;;;;;;;4963862;28;45705;-80
2022/01/19 10:03:13;;;;;;;;;43.67;38.67;;;;;;;;4964453;28;45788;-81
2022/01/19 10:05:52;;;;;;;;;47.00;39.75;;;;;;;;4967915;28;45478;-79
2022/01/19 10:08:24;;;;;;;;;43.50;37.50;;;;;;;;4972835;28;46135;-79
2022/01/19 10:11:03;;;;;;;;;48.50;39.00;;;;;;;;4980695;28;45311;-79
2022/01/19 10:19:19;;;;;;;;;50.25;42.00;;;;;;;;4981781;28;45436;-79
2022/01/19 10:21:54;;;;;;;;;47.00;39.75;;;;;;;;4969510;28;45589;-79
2022/01/19 10:24:31;;;;;;;;;43.50;39.25;;;;;;;;4977379;28;45382;-79
2022/01/19 10:27:16;;;;;;;;;49.00;42.75;;;;;;;;4985349;28;45526;-80
2022/01/19 10:29:41;;;;;;;;;48.00;40.00;;;;;;;;4968563;28;45781;-80
2022/01/19 10:32:07;;;;;;;;;51.75;41.25;;;;;;;;4971380;28;45699;-79
2022/01/19 10:34:33;;;;;;;;;46.50;39.00;;;;;;;;4990394;28;45436;-79
2022/01/19 10:37:03;;;;;;;;;51.75;43.25;;;;;;;;4989908;28;45597;-79
2022/01/19 10:39:42;;;;;;;;;54.00;43.75;;;;;;;;4989753;28;45861;-79
2022/01/19 10:42:09;;;;;;;;;50.25;43.00;;;;;;;;4986065;28;45526;-80
2022/01/19 10:44:39;;;;;;;;;54.75;46.00;;;;;;;;4984581;28;46603;-80
2022/01/19 10:47:05;;;;;;;;;55.75;45.25;;;;;;;;4993282;28;45625;-81
2022/01/19 10:49:49;;;;;;;;;47.50;41.00;;;;;;;;5002932;28;45499;-79
2022/01/19 10:52:31;;;;;;;;;56.25;42.00;;;;;;;;5000909;28;45379;-79
2022/01/19 10:54:57;;;;;;;;;59.00;43.75;;;;;;;;4985538;28;45280;-80
2022/01/19 10:57:23;;;;;;;;;60.25;44.00;;;;;;;;5005327;28;45323;-80
2022/01/19 10:59:50;;;;;;;;;56.75;44.00;;;;;;;;4990218;28;45660;-80
2022/01/19 11:02:15;;;;;;;;;54.75;46.25;;;;;;;;5001002;28;45409;-80
2022/01/19 11:04:42;;;;;;;;;56.67;47.67;;;;;;;;4995111;28;45489;-81
2022/01/19 11:07:19;;;;;;;;;57.00;45.00;;;;;;;;5007188;28;45630;-80
2022/01/19 11:09:46;;;;;;;;;54.50;45.75;;;;;;;;5001515;28;45191;-79
2022/01/19 11:12:17;;;;;;;;;56.25;42.00;;;;;;;;4994075;28;45419;-79
2022/01/19 11:14:43;;;;;;;;;57.25;45.75;;;;;;;;4997333;28;45559;-79
2022/01/19 11:17:11;;;;;;;;;57.50;46.25;;;;;;;;5007346;28;46129;-80
2022/01/19 11:19:38;;;;;;;;;63.25;48.00;;;;;;;;4990709;28;45641;-80
2022/01/19 11:22:03;;;;;;;;;61.25;49.00;;;;;;;;4998804;28;45237;-79
2022/01/19 11:24:32;;;;;;;;;57.67;48.00;;;;;;;;5008086;28;45128;-81
2022/01/19 11:26:57;;;;;;;;;52.25;44.00;;;;;;;;5005299;28;45296;-80
2022/01/19 11:29:24;;;;;;;;;60.25;48.00;;;;;;;;4987235;28;45643;-80
2022/01/19 11:31:50;;;;;;;;;57.50;46.75;;;;;;;;4986957;28;45618;-79
2022/01/19 11:34:35;;;;;;;;;60.50;46.50;;;;;;;;4987016;28;45736;-79
2022/01/19 11:37:02;;;;;;;;;59.00;47.50;;;;;;;;4982614;28;46335;-79
2022/01/19 11:39:30;;;;;;;;;58.25;46.75;;;;;;;;4990721;28;45705;-78
2022/01/19 11:41:57;;;;;;;;;55.00;45.50;;;;;;;;4984373;28;45569;-79
2022/01/19 11:44:28;;;;;;;;;64.00;47.25;;;;;;;;4985651;28;45495;-79
2022/01/19 11:46:55;;;;;;;;;58.00;46.75;;;;;;;;4989988;28;46389;-79
2022/01/19 11:49:38;;;;;;;;;57.00;44.50;;;;;;;;4978836;28;45595;-79
2022/01/19 11:52:04;;;;;;;;;58.00;48.00;;;;;;;;4989946;28;45971;-79
2022/01/19 11:54:31;;;;;;;;;57.50;47.50;;;;;;;;4986541;28;45723;-79
2022/01/19 11:56:59;;;;;;;;;56.00;46.50;;;;;;;;4995362;28;45869;-79
2022/01/19 11:59:30;;;;;;;;;57.75;45.75;;;;;;;;4995190;28;45150;-79
2022/01/19 12:02:14;;;;;;;;;54.25;44.75;;;;;;;;4996073;28;45054;-80
2022/01/19 12:04:39;;;;;;;;;57.75;47.00;;;;;;;;5000323;28;44783;-79
2022/01/19 12:07:24;;;;;;;;;56.00;43.00;;;;;;;;4983508;28;47589;-80
2022/01/19 12:09:56;;;;;;;;;54.50;43.50;;;;;;;;4997904;28;45171;-79
2022/01/19 12:12:24;;;;;;;;;53.50;41.50;;;;;;;;5003242;28;45053;-79
2022/01/19 12:14:51;;;;;;;;;51.75;42.25;;;;;;;;5011360;28;45105;-79
2022/01/19 12:17:26;;;;;;;;;51.50;42.00;;;;;;;;5009116;28;46058;-79
2022/01/19 12:19:52;;;;;;;;;54.75;44.25;;;;;;;;5006487;28;45638;-79
2022/01/19 12:22:24;;;;;;;;;56.25;43.75;;;;;;;;5009136;28;45273;-79
2022/01/19 12:24:56;;;;;;;;;46.75;40.50;;;;;;;;5015688;28;45262;-79
2022/01/19 12:27:29;;;;;;;;;48.75;40.25;;;;;;;;4998172;28;45928;-79
2022/01/19 12:30:09;;;;;;;;;53.00;42.75;;;;;;;;5010551;28;45572;-79
2022/01/19 12:32:36;;;;;;;;;41.75;37.50;;;;;;;;5008434;28;45203;-80
2022/01/19 12:35:04;;;;;;;;;49.25;39.50;;;;;;;;5000522;28;45252;-79
2022/01/19 12:37:32;;;;;;;;;34.25;31.00;;;;;;;;5005747;28;45346;-79
2022/01/19 12:39:58;;;;;;;;;39.25;35.50;;;;;;;;4985570;28;45503;-79
2022/01/19 12:42:32;;;;;;;;;40.25;35.25;;;;;;;;5010675;28;45064;-79
2022/01/19 12:44:59;;;;;;;;;39.00;34.00;;;;;;;;5010696;28;45335;-80
2022/01/19 12:47:24;;;;;;;;;34.00;33.00;;;;;;;;5008155;28;45418;-79
2022/01/19 12:49:50;;;;;;;;;34.00;30.00;;;;;;;;5007047;28;45194;-79
2022/01/19 12:52:16;;;;;;;;;35.25;30.25;;;;;;;;5010436;28;45480;-78
2022/01/19 12:54:41;;;;;;;;;35.25;34.25;;;;;;;;5004751;28;45136;-81
2022/01/19 12:57:09;;;;;;;;;34.50;32.00;;;;;;;;4992225;28;47404;-79
2022/01/19 12:59:35;;;;;;;;;32.00;28.25;;;;;;;;5010150;28;45461;-79
2022/01/19 13:02:01;;;;;;;;;26.00;24.75;;;;;;;;5006854;28;45219;-79
2022/01/19 13:04:27;;;;;;;;;31.75;28.25;;;;;;;;5009448;28;45081;-79
2022/01/19 13:06:55;;;;;;;;;33.75;32.25;;;;;;;;5001938;28;45800;-79
2022/01/19 13:09:29;;;;;;;;;29.00;25.75;;;;;;;;4993410;28;45092;-79
2022/01/19 13:11:55;;;;;;;;;36.50;34.25;;;;;;;;5009755;28;45115;-79
2022/01/19 13:14:23;;;;;;;;;31.00;27.75;;;;;;;;4990478;28;45325;-79
2022/01/19 13:16:52;;;;;;;;;34.75;29.25;;;;;;;;5005656;28;45401;-79
2022/01/19 13:19:18;;;;;;;;;29.25;29.00;;;;;;;;4993639;28;45046;-79
2022/01/19 13:21:46;;;;;;;;;27.50;25.00;;;;;;;;5010043;28;45032;-79
2022/01/19 13:24:20;;;;;;;;;34.00;27.50;;;;;;;;5007288;28;45503;-79
2022/01/19 13:26:47;;;;;;;;;27.75;24.00;;;;;;;;5006738;28;46029;-78
2022/01/19 13:29:23;;;;;;;;;28.00;26.50;;;;;;;;5009582;28;45444;-79
2022/01/19 13:31:56;;;;;;;;;31.50;28.00;;;;;;;;5009513;28;45149;-79
2022/01/19 13:34:21;;;;;;;;;27.00;25.00;;;;;;;;5007407;28;44988;-79
2022/01/19 13:36:51;;;;;;;;;30.25;28.00;;;;;;;;4980946;28;46924;-79
2022/01/19 13:39:19;;;;;;;;;24.00;24.00;;;;;;;;5009257;28;45418;-79
2022/01/19 13:41:44;;;;;;;;;29.00;24.50;;;;;;;;4992274;28;45405;-79
2022/01/19 13:44:13;;;;;;;;;32.67;29.00;;;;;;;;4991427;28;45532;-79
2022/01/19 13:46:39;;;;;;;;;25.00;23.75;;;;;;;;4987718;28;46585;-79
2022/01/19 13:49:05;;;;;;;;;28.50;25.50;;;;;;;;4991351;28;45494;-79
2022/01/19 13:51:32;;;;;;;;;29.50;27.50;;;;;;;;4991428;28;45406;-80
2022/01/19 13:54:00;;;;;;;;;30.25;25.75;;;;;;;;5000375;28;45243;-85
2022/01/19 13:56:30;;;;;;;;;31.25;29.25;;;;;;;;5001044;28;45668;-81
2022/01/19 13:59:01;;;;;;;;;33.25;25.25;;;;;;;;4999080;28;46065;-80
2022/01/19 14:01:33;;;;;;;;;29.50;27.50;;;;;;;;4999545;28;45137;-81
2022/01/19 14:04:04;;;;;;;;;32.25;27.00;;;;;;;;5003791;28;45382;-80
2022/01/19 14:06:34;;;;;;;;;29.50;26.75;;;;;;;;4998525;28;45159;-83
2022/01/19 14:09:07;;;;;;;;;32.00;28.50;;;;;;;;5008224;28;45227;-82
2022/01/19 14:11:32;;;;;;;;;32.75;28.50;;;;;;;;4973937;28;45715;-79
2022/01/19 14:14:08;;;;;;;;;32.00;29.33;;;;;;;;5000420;28;45468;-80
2022/01/19 14:16:42;;;;;;;;;31.25;29.25;;;;;;;;5003660;28;46305;-80
2022/01/19 14:19:12;;;;;;;;;40.00;31.25;;;;;;;;4988638;28;45786;-79
2022/01/19 14:21:56;;;;;;;;;31.50;30.00;;;;;;;;4982270;28;45589;-79
2022/01/19 14:24:22;;;;;;;;;31.50;29.00;;;;;;;;4988349;28;45644;-80
2022/01/19 14:26:55;;;;;;;;;33.00;31.25;;;;;;;;4994871;28;46979;-79
2022/01/19 14:29:20;;;;;;;;;29.00;28.00;;;;;;;;4999514;28;45558;-78
2022/01/19 14:31:47;;;;;;;;;35.25;31.50;;;;;;;;4991263;28;45422;-79
2022/01/19 14:34:12;;;;;;;;;28.50;25.50;;;;;;;;4984982;28;45415;-81
2022/01/19 14:36:37;;;;;;;;;34.67;29.67;;;;;;;;5008636;28;45297;-79
2022/01/19 14:39:02;;;;;;;;;32.00;30.67;;;;;;;;4996374;28;46156;-81
2022/01/19 14:41:31;;;;;;;;;31.50;30.00;;;;;;;;4996210;28;45849;-80
2022/01/19 14:44:02;;;;;;;;;34.25;31.75;;;;;;;;5002268;28;45248;-81
2022/01/19 14:46:39;;;;;;;;;33.25;31.75;;;;;;;;4983847;28;47666;-80
2022/01/19 14:49:04;;;;;;;;;24.00;21.00;;;;;;;;5003751;28;45600;-80
2022/01/19 14:51:31;;;;;;;;;33.00;30.33;;;;;;;;5006994;28;45240;-82
2022/01/19 14:53:57;;;;;;;;;32.00;28.50;;;;;;;;5006469;28;45053;-80
2022/01/19 14:56:23;;;;;;;;;36.50;30.50;;;;;;;;4997201;28;46138;-82
2022/01/19 14:59:01;;;;;;;;;31.75;30.00;;;;;;;;4998476;28;45910;-79
2022/01/19 15:01:26;;;;;;;;;30.50;30.50;;;;;;;;5003425;28;45375;-80
2022/01/19 15:03:51;;;;;;;;;36.25;31.50;;;;;;;;5005024;28;45464;-79
2022/01/19 15:06:17;;;;;;;;;31.00;29.67;;;;;;;;4998718;28;45674;-79
2022/01/19 15:08:43;;;;;;;;;40.33;31.00;;;;;;;;5003246;28;45050;-79
2022/01/19 15:11:08;;;;;;;;;34.00;30.75;;;;;;;;5005773;28;45167;-80
2022/01/19 15:13:33;;;;;;;;;26.00;25.00;;;;;;;;5005116;28;45186;-82
2022/01/19 15:15:59;;;;;;;;;28.00;24.00;;;;;;;;4989082;28;45693;-81
2022/01/19 15:18:24;;;;;;;;;33.33;31.00;;;;;;;;5000592;28;45584;-80
2022/01/19 15:20:49;;;;;;;;;30.00;26.25;;;;;;;;5006482;28;45658;-77
2022/01/19 15:23:15;;;;;;;;;40.33;32.67;;;;;;;;5006861;28;45158;-80
2022/01/19 15:25:40;;;;;;;;;31.50;29.50;;;;;;;;5005148;28;45495;-79
2022/01/19 15:28:06;;;;;;;;;37.33;33.67;;;;;;;;5004527;28;45278;-80
2022/01/19 15:30:33;;;;;;;;;35.50;31.50;;;;;;;;4986849;28;45355;-80
2022/01/19 15:32:58;;;;;;;;;41.50;36.25;;;;;;;;5002338;28;45218;-80
2022/01/19 15:35:24;;;;;;;;;37.25;31.75;;;;;;;;4982229;28;46801;-80
2022/01/19 15:37:50;;;;;;;;;31.75;30.25;;;;;;;;5005489;28;45559;-80
2022/01/19 15:40:16;;;;;;;;;35.00;32.00;;;;;;;;4999646;28;45323;-80
2022/01/19 15:42:42;;;;;;;;;37.50;34.25;;;;;;;;5005211;28;45120;-81
2022/01/19 15:45:08;;;;;;;;;47.00;38.50;;;;;;;;4994487;28;45777;-79
2022/01/19 15:47:34;;;;;;;;;41.00;34.50;;;;;;;;5002133;28;45456;-79
2022/01/19 15:50:10;;;;;;;;;30.75;29.00;;;;;;;;5001554;28;45476;-79
2022/01/19 15:52:36;;;;;;;;;47.25;38.75;;;;;;;;5010149;28;45101;-82